createdAt,value
2022-10-04T00:00:44.193Z,2.43
2022-10-04T00:03:36.048Z,2.50
2022-10-04T00:06:26.611Z,2.03
2022-10-04T00:09:16.714Z,2.00
2022-10-04T00:12:06.128Z,2.50
2022-10-04T00:14:56.457Z,2.10
2022-10-04T00:17:43.287Z,2.30
2022-10-04T00:21:02.672Z,2.40
2022-10-04T00:23:50.778Z,1.97
2022-10-04T00:27:11.975Z,2.10
2022-10-04T00:30:23.007Z,1.90
2022-10-04T00:33:10.512Z,2.67
2022-10-04T00:35:57.929Z,3.63
2022-10-04T00:38:44.801Z,2.33
2022-10-04T00:41:38.914Z,2.50
2022-10-04T00:44:32.678Z,1.93
2022-10-04T00:47:31.382Z,1.80
2022-10-04T00:50:22.087Z,2.23
2022-10-04T00:53:20.261Z,1.80
2022-10-04T00:56:12.833Z,2.03
2022-10-04T00:59:26.126Z,1.90
2022-10-04T01:02:23.196Z,2.23
2022-10-04T01:05:16.539Z,1.70
2022-10-04T01:08:08.115Z,2.00
2022-10-04T01:10:59.054Z,1.70
2022-10-04T01:13:52.544Z,1.90
2022-10-04T01:16:40.659Z,1.70
2022-10-04T01:19:31.531Z,2.07
2022-10-04T01:22:34.635Z,2.63
2022-10-04T01:25:45.986Z,2.47
2022-10-04T01:28:34.084Z,1.63
2022-10-04T01:31:21.334Z,2.20
2022-10-04T01:34:08.750Z,2.10
2022-10-04T01:36:57.510Z,1.77
2022-10-04T01:39:45.737Z,2.03
2022-10-04T01:42:37.735Z,1.80
2022-10-04T01:45:31.254Z,1.90
2022-10-04T01:48:23.303Z,1.90
2022-10-04T01:51:16.234Z,1.60
2022-10-04T01:54:08.148Z,2.50
2022-10-04T01:57:02.715Z,1.93
2022-10-04T01:59:57.618Z,1.93
2022-10-04T02:02:51.465Z,1.90
2022-10-04T02:05:42.673Z,2.03
2022-10-04T02:08:32.584Z,2.30
2022-10-04T02:11:20.503Z,1.83
2022-10-04T02:14:16.720Z,2.30
2022-10-04T02:17:10.619Z,2.00
2022-10-04T02:19:58.815Z,1.80
2022-10-04T02:22:47.792Z,2.07
2022-10-04T02:25:37.725Z,1.90
2022-10-04T02:28:24.452Z,1.97
2022-10-04T02:31:30.809Z,2.63
2022-10-04T02:34:20.019Z,1.77
2022-10-04T02:37:08.181Z,2.20
2022-10-04T02:40:00.693Z,1.80
2022-10-04T02:42:55.645Z,1.80
2022-10-04T02:45:50.553Z,2.10
2022-10-04T02:48:45.536Z,2.23
2022-10-04T02:51:35.611Z,1.67
2022-10-04T02:54:29.842Z,1.80
2022-10-04T02:57:19.424Z,1.70
2022-10-04T03:00:18.812Z,2.00
2022-10-04T03:03:23.681Z,2.37
2022-10-04T03:06:14.690Z,1.93
2022-10-04T03:09:04.527Z,1.80
2022-10-04T03:11:52.521Z,1.90
2022-10-04T03:14:40.689Z,1.70
2022-10-04T03:17:28.425Z,2.17
2022-10-04T03:20:21.286Z,2.67
2022-10-04T03:23:11.590Z,1.73
2022-10-04T03:26:02.987Z,1.87
2022-10-04T03:28:49.912Z,2.47
2022-10-04T03:31:39.521Z,2.10
2022-10-04T03:34:28.900Z,1.93
2022-10-04T03:37:18.226Z,2.10
2022-10-04T03:40:11.001Z,1.90
2022-10-04T03:42:59.711Z,2.20
2022-10-04T03:45:47.479Z,1.90
2022-10-04T03:48:38.303Z,1.80
2022-10-04T03:51:27.007Z,1.80
2022-10-04T03:54:20.142Z,2.00
2022-10-04T03:57:09.033Z,2.03
2022-10-04T03:59:56.197Z,2.07
2022-10-04T04:02:46.781Z,1.93
2022-10-04T04:05:43.265Z,2.17
2022-10-04T04:08:34.602Z,2.17
2022-10-04T04:11:24.771Z,2.40
2022-10-04T04:14:17.299Z,2.23
2022-10-04T04:17:20.382Z,1.83
2022-10-04T04:20:16.737Z,2.33
2022-10-04T04:23:11.148Z,2.40
2022-10-04T04:26:02.746Z,1.87
2022-10-04T04:28:52.521Z,1.30
2022-10-04T04:31:46.061Z,1.70
2022-10-04T04:34:35.645Z,2.70
2022-10-04T04:37:22.465Z,2.10
2022-10-04T04:40:20.882Z,2.90
2022-10-04T04:43:08.193Z,2.13
2022-10-04T04:46:22.168Z,1.90
2022-10-04T04:49:06.332Z,2.07
2022-10-04T04:51:53.673Z,2.00
2022-10-04T04:54:40.221Z,2.20
2022-10-04T04:57:27.202Z,2.10
2022-10-04T05:00:19.231Z,1.67
2022-10-04T05:03:08.631Z,1.70
2022-10-04T05:05:58.400Z,2.17
2022-10-04T05:08:51.311Z,1.90
2022-10-04T05:11:39.839Z,2.20
2022-10-04T05:14:26.534Z,1.97
2022-10-04T05:17:19.757Z,2.10
2022-10-04T05:20:07.607Z,1.70
2022-10-04T05:22:56.033Z,2.00
2022-10-04T05:25:42.860Z,1.97
2022-10-04T05:28:30.770Z,2.23
2022-10-04T05:31:32.357Z,2.43
2022-10-04T05:34:23.904Z,2.57
2022-10-04T05:37:24.341Z,2.27
2022-10-04T05:40:30.821Z,2.50
2022-10-04T05:43:33.485Z,2.93
2022-10-04T05:46:25.507Z,2.40
2022-10-04T05:49:19.400Z,2.63
2022-10-04T05:52:15.763Z,2.67
2022-10-04T05:55:22.365Z,2.67
2022-10-04T05:58:28.447Z,2.60
2022-10-04T06:01:29.104Z,2.33
2022-10-04T06:04:39.708Z,2.27
2022-10-04T06:07:31.309Z,2.60
2022-10-04T06:10:48.485Z,2.73
2022-10-04T06:13:54.085Z,2.83
2022-10-04T06:16:59.929Z,2.63
2022-10-04T06:20:09.667Z,2.23
2022-10-04T06:23:00.833Z,2.40
2022-10-04T06:25:54.030Z,2.20
2022-10-04T06:28:46.759Z,3.03
2022-10-04T06:31:52.612Z,2.50
2022-10-04T06:34:56.806Z,3.07
2022-10-04T06:38:29.249Z,2.17
2022-10-04T06:41:29.832Z,2.20
2022-10-04T06:44:46.735Z,2.00
2022-10-04T06:47:51.024Z,2.00
2022-10-04T06:50:49.855Z,2.47
2022-10-04T06:53:48.793Z,2.60
2022-10-04T06:57:06.444Z,2.00
2022-10-04T07:00:04.846Z,2.37
2022-10-04T07:02:55.150Z,2.40
2022-10-04T07:05:49.666Z,2.93
2022-10-04T07:08:41.858Z,2.30
2022-10-04T07:11:33.120Z,2.03
2022-10-04T07:14:27.656Z,2.70
2022-10-04T07:17:19.554Z,2.30
2022-10-04T07:20:08.936Z,2.23
2022-10-04T07:22:59.718Z,2.00
2022-10-04T07:25:50.698Z,1.93
2022-10-04T07:29:01.137Z,2.27
2022-10-04T07:31:52.570Z,2.77
2022-10-04T07:34:46.654Z,2.30
2022-10-04T07:37:46.462Z,2.60
2022-10-04T07:40:36.849Z,1.93
2022-10-04T07:43:28.992Z,1.80
2022-10-04T07:46:22.742Z,2.00
2022-10-04T07:49:16.566Z,2.63
2022-10-04T07:52:16.461Z,2.00
2022-10-04T07:55:11.890Z,1.70
2022-10-04T07:58:10.600Z,2.47
2022-10-04T08:01:02.142Z,2.20
2022-10-04T08:04:13.762Z,2.30
2022-10-04T08:07:04.325Z,1.70
2022-10-04T08:10:04.109Z,1.70
2022-10-04T08:12:58.776Z,1.90
2022-10-04T08:15:46.382Z,2.00
2022-10-04T08:18:49.997Z,2.03
2022-10-04T08:21:49.577Z,2.70
2022-10-04T08:24:53.510Z,2.23
2022-10-04T08:28:13.853Z,1.43
2022-10-04T08:31:14.431Z,1.87
2022-10-04T08:34:21.475Z,2.00
2022-10-04T08:37:18.466Z,1.97
2022-10-04T08:40:45.719Z,2.10
2022-10-04T08:44:27.307Z,2.17
2022-10-04T08:47:50.403Z,2.17
2022-10-04T08:51:08.015Z,2.13
2022-10-04T08:54:22.572Z,2.07
2022-10-04T08:57:49.195Z,1.90
2022-10-04T09:00:51.744Z,1.53
2022-10-04T09:04:04.260Z,1.60
2022-10-04T09:07:11.147Z,1.97
2022-10-04T09:10:16.268Z,1.70
2022-10-04T09:13:25.138Z,1.73
2022-10-04T09:16:18.122Z,1.50
2022-10-04T09:19:38.553Z,1.60
2022-10-04T09:22:48.356Z,2.00
2022-10-04T09:25:50.192Z,1.60
2022-10-04T09:29:21.331Z,1.70
2022-10-04T09:32:27.750Z,1.57
2022-10-04T09:35:32.143Z,1.70
2022-10-04T09:38:42.288Z,1.70
2022-10-04T09:42:02.280Z,1.97
2022-10-04T09:45:21.787Z,1.67
2022-10-04T09:48:25.300Z,1.73
2022-10-04T09:51:31.864Z,2.27
2022-10-04T09:54:49.772Z,2.30
2022-10-04T09:57:55.783Z,2.30
2022-10-04T10:00:49.905Z,2.47
2022-10-04T10:04:18.294Z,2.10
2022-10-04T10:07:34.479Z,2.07
2022-10-04T10:10:54.686Z,2.47
2022-10-04T10:14:22.872Z,2.27
2022-10-04T10:17:17.342Z,1.80
2022-10-04T10:20:40.521Z,2.30
2022-10-04T10:23:40.634Z,2.37
2022-10-04T10:26:38.028Z,2.23
2022-10-04T10:29:44.364Z,2.50
2022-10-04T10:32:49.194Z,2.07
2022-10-04T10:35:51.511Z,2.73
2022-10-04T10:39:01.310Z,2.20
2022-10-04T10:42:07.583Z,2.37
2022-10-04T10:45:18.818Z,2.37
2022-10-04T10:48:18.016Z,2.50
2022-10-04T10:51:12.034Z,3.13
2022-10-04T10:54:30.689Z,2.27
2022-10-04T10:57:36.004Z,2.27
2022-10-04T11:00:24.373Z,2.80
2022-10-04T11:03:52.302Z,2.30
2022-10-04T11:07:14.325Z,2.40
2022-10-04T11:10:29.415Z,2.10
2022-10-04T11:13:42.011Z,3.00
2022-10-04T11:17:05.688Z,2.50
2022-10-04T11:20:33.462Z,2.27
2022-10-04T11:24:00.818Z,2.03
2022-10-04T11:27:06.092Z,2.03
2022-10-04T11:30:15.893Z,2.43
2022-10-04T11:33:48.465Z,2.00
2022-10-04T11:36:48.594Z,2.40
2022-10-04T11:39:57.261Z,1.80
2022-10-04T11:43:02.288Z,1.90
2022-10-04T11:46:10.500Z,1.90
2022-10-04T11:49:09.491Z,1.60
2022-10-04T11:52:37.055Z,1.63
2022-10-04T11:55:54.240Z,1.80
2022-10-04T11:58:53.080Z,1.20
2022-10-04T12:02:00.126Z,1.90
2022-10-04T12:05:20.630Z,1.80
2022-10-04T12:08:28.418Z,1.90
2022-10-04T12:11:56.367Z,1.77
2022-10-04T12:15:03.710Z,1.70
2022-10-04T12:18:10.189Z,1.70
2022-10-04T12:21:29.025Z,1.70
2022-10-04T12:24:27.238Z,1.60
2022-10-04T12:27:43.549Z,2.00
2022-10-04T12:30:44.574Z,2.07
2022-10-04T12:33:38.065Z,1.90
2022-10-04T12:36:45.663Z,1.93
2022-10-04T12:39:48.711Z,1.87
2022-10-04T12:42:47.523Z,1.57
2022-10-04T12:45:48.260Z,1.90
2022-10-04T12:48:54.948Z,2.03
2022-10-04T12:51:53.952Z,2.00
2022-10-04T12:54:45.057Z,1.70
2022-10-04T12:57:48.915Z,1.70
2022-10-04T13:00:42.153Z,1.90
2022-10-04T13:03:40.345Z,3.00
2022-10-04T13:06:42.607Z,2.07
2022-10-04T13:09:59.785Z,2.20
2022-10-04T13:13:31.237Z,1.90
2022-10-04T13:19:39.298Z,2.60
2022-10-04T13:22:55.902Z,2.30
2022-10-04T13:26:04.058Z,1.83
2022-10-04T13:29:03.020Z,2.00
2022-10-04T13:31:59.126Z,2.10
2022-10-04T13:34:54.211Z,2.10
2022-10-04T13:37:55.537Z,2.50
2022-10-04T13:41:00.949Z,2.70
2022-10-04T13:44:34.116Z,1.97
2022-10-04T13:47:47.470Z,1.80
2022-10-04T13:50:58.711Z,1.80
2022-10-04T13:54:13.515Z,1.90
2022-10-04T13:57:15.088Z,2.13
2022-10-04T14:00:05.926Z,1.77
2022-10-04T14:03:11.440Z,2.13
2022-10-04T14:06:19.167Z,2.57
2022-10-04T14:09:27.282Z,1.87
2022-10-04T14:12:36.038Z,2.23
2022-10-04T14:15:51.200Z,2.33
2022-10-04T14:19:09.925Z,2.00
2022-10-04T14:22:19.451Z,1.97
2022-10-04T14:25:44.492Z,2.50
2022-10-04T14:28:48.306Z,3.87
2022-10-04T14:31:58.253Z,2.17
2022-10-04T14:34:59.304Z,1.77
2022-10-04T14:38:25.907Z,1.73
2022-10-04T14:41:55.190Z,1.57
2022-10-04T14:45:13.915Z,1.83
2022-10-04T14:48:30.721Z,1.90
2022-10-04T14:51:48.285Z,1.70
2022-10-04T14:54:45.527Z,2.10
2022-10-04T14:57:54.289Z,1.67
2022-10-04T15:01:04.506Z,1.80
2022-10-04T15:04:20.215Z,1.90
2022-10-04T15:07:19.870Z,2.00
2022-10-04T15:10:13.913Z,2.10
2022-10-04T15:13:12.449Z,2.30
2022-10-04T15:16:14.272Z,2.20
2022-10-04T15:19:09.085Z,1.73
2022-10-04T15:22:06.308Z,1.50
2022-10-04T15:24:55.257Z,1.83
2022-10-04T15:27:55.085Z,1.60
2022-10-04T15:31:10.193Z,1.77
2022-10-04T15:34:03.107Z,1.73
2022-10-04T15:37:05.024Z,1.83
2022-10-04T15:40:19.714Z,1.90
2022-10-04T15:43:25.756Z,2.00
2022-10-04T15:46:41.610Z,1.67
2022-10-04T15:49:42.964Z,2.00
2022-10-04T15:52:58.091Z,2.10
2022-10-04T15:56:06.932Z,2.20
2022-10-04T15:59:32.088Z,2.17
2022-10-04T16:02:48.729Z,2.20
2022-10-04T16:05:40.342Z,1.97
2022-10-04T16:08:47.227Z,2.17
2022-10-04T16:12:20.228Z,2.07
2022-10-04T16:15:19.929Z,2.10
2022-10-04T16:18:30.850Z,2.20
2022-10-04T16:21:29.865Z,2.17
2022-10-04T16:24:45.206Z,2.70
2022-10-04T16:28:05.790Z,2.50
2022-10-04T16:31:20.315Z,2.30
2022-10-04T16:34:30.661Z,2.17
2022-10-04T16:37:36.222Z,2.57
2022-10-04T16:40:32.793Z,2.20
2022-10-04T16:43:29.051Z,2.57
2022-10-04T16:46:25.294Z,3.00
2022-10-04T16:49:25.955Z,2.20
2022-10-04T16:52:33.936Z,2.43
2022-10-04T16:55:45.451Z,2.77
2022-10-04T16:59:00.758Z,2.30
2022-10-04T17:02:20.170Z,2.30
2022-10-04T17:05:37.118Z,2.10
2022-10-04T17:08:28.797Z,1.80
2022-10-04T17:11:36.245Z,2.07
2022-10-04T17:14:46.503Z,2.33
2022-10-04T17:17:45.486Z,2.23
2022-10-04T17:20:48.794Z,2.17
2022-10-04T17:23:59.286Z,1.70
2022-10-04T17:27:05.614Z,1.80
2022-10-04T17:30:04.408Z,1.70
2022-10-04T17:33:21.960Z,2.00
2022-10-04T17:36:38.705Z,1.80
2022-10-04T17:39:39.194Z,2.23
2022-10-04T17:42:35.594Z,2.27
2022-10-04T17:45:48.625Z,2.10
2022-10-04T17:49:03.048Z,2.10
2022-10-04T17:52:21.340Z,2.03
2022-10-04T17:55:18.153Z,2.00
2022-10-04T17:58:14.045Z,2.50
2022-10-04T18:01:08.226Z,2.30
2022-10-04T18:04:11.370Z,2.30
2022-10-04T18:07:08.237Z,2.40
2022-10-04T18:09:59.883Z,2.63
2022-10-04T18:12:52.789Z,2.33
2022-10-04T18:15:45.350Z,2.60
2022-10-04T18:18:40.378Z,2.17
2022-10-04T18:21:29.631Z,2.50
2022-10-04T18:24:21.108Z,2.27
2022-10-04T18:27:19.605Z,2.23
2022-10-04T18:30:14.640Z,2.20
2022-10-04T18:33:03.191Z,2.20
2022-10-04T18:36:01.027Z,2.10
2022-10-04T18:39:00.955Z,2.37
2022-10-04T18:41:59.140Z,2.37
2022-10-04T18:44:49.024Z,2.30
2022-10-04T18:47:38.205Z,2.10
2022-10-04T18:50:34.187Z,2.50
2022-10-04T18:53:43.819Z,2.17
2022-10-04T18:56:45.248Z,2.80
2022-10-04T19:00:02.663Z,2.53
2022-10-04T19:02:58.683Z,2.40
2022-10-04T19:05:52.842Z,2.73
2022-10-04T19:08:53.352Z,2.77
2022-10-04T19:11:45.582Z,2.60
2022-10-04T19:14:42.082Z,3.10
2022-10-04T19:17:34.150Z,2.67
2022-10-04T19:20:28.422Z,2.50
2022-10-04T19:23:29.298Z,2.50
2022-10-04T19:26:32.177Z,2.80
2022-10-04T19:29:33.538Z,2.80
2022-10-04T19:32:37.186Z,2.70
2022-10-04T19:35:37.917Z,2.57
2022-10-04T19:38:52.097Z,3.20
2022-10-04T19:41:56.249Z,3.00
2022-10-04T19:45:12.575Z,2.70
2022-10-04T19:48:03.278Z,2.50
2022-10-04T19:50:54.179Z,3.30
2022-10-04T19:53:45.449Z,3.27
2022-10-04T19:56:37.443Z,3.20
2022-10-04T19:59:38.662Z,3.00
2022-10-04T20:02:29.292Z,2.70
2022-10-04T20:05:25.537Z,3.03
2022-10-04T20:08:17.875Z,2.77
2022-10-04T20:11:16.659Z,3.20
2022-10-04T20:14:37.095Z,2.97
2022-10-04T20:17:44.328Z,2.77
2022-10-04T20:21:06.217Z,2.90
2022-10-04T20:24:00.850Z,3.07
2022-10-04T20:26:56.029Z,2.73
2022-10-04T20:30:06.285Z,3.30
2022-10-04T20:33:04.769Z,3.10
2022-10-04T20:36:13.321Z,3.00
2022-10-04T20:39:13.259Z,3.20
2022-10-04T20:42:22.793Z,3.27
2022-10-04T20:45:31.919Z,3.37
2022-10-04T20:48:22.961Z,3.03
2022-10-04T20:51:11.075Z,3.13
2022-10-04T20:53:58.442Z,2.70
2022-10-04T20:56:49.320Z,2.60
2022-10-04T20:59:36.451Z,2.43
2022-10-04T21:02:25.757Z,3.00
2022-10-04T21:05:24.846Z,2.90
2022-10-04T21:08:17.029Z,2.93
2022-10-04T21:11:20.401Z,2.67
2022-10-04T21:14:22.946Z,2.80
2022-10-04T21:17:42.353Z,2.67
2022-10-04T21:20:49.462Z,3.00
2022-10-04T21:23:36.993Z,2.60
2022-10-04T21:26:26.321Z,2.50
2022-10-04T21:29:12.985Z,2.77
2022-10-04T21:32:00.546Z,2.60
2022-10-04T21:34:55.047Z,2.63
2022-10-04T21:37:43.527Z,2.60
2022-10-04T21:40:30.453Z,2.97
2022-10-04T21:43:17.722Z,2.80
2022-10-04T21:46:04.923Z,2.37
2022-10-04T21:48:52.522Z,3.07
2022-10-04T21:51:40.517Z,2.67
2022-10-04T21:54:29.250Z,2.60
2022-10-04T21:57:16.187Z,2.80
2022-10-04T22:00:03.852Z,2.77
2022-10-04T22:02:58.995Z,2.60
2022-10-04T22:05:46.806Z,3.23
2022-10-04T22:08:33.681Z,2.83
2022-10-04T22:11:21.826Z,3.23
2022-10-04T22:14:08.525Z,2.87
2022-10-04T22:16:55.288Z,2.80
2022-10-04T22:19:42.130Z,3.13
2022-10-04T22:22:31.075Z,3.00
2022-10-04T22:25:20.238Z,2.80
2022-10-04T22:28:19.302Z,3.23
2022-10-04T22:31:12.607Z,2.50
2022-10-04T22:33:59.282Z,3.37
2022-10-04T22:36:47.551Z,3.43
2022-10-04T22:39:34.444Z,3.30
2022-10-04T22:42:31.499Z,3.17
2022-10-04T22:45:23.681Z,3.13
2022-10-04T22:48:20.189Z,3.27
2022-10-04T22:51:09.871Z,3.17
2022-10-04T22:53:58.126Z,2.97
2022-10-04T22:56:45.520Z,3.40
2022-10-04T22:59:39.325Z,3.23
2022-10-04T23:02:32.019Z,3.33
2022-10-04T23:05:20.653Z,3.13
2022-10-04T23:08:07.355Z,3.17
2022-10-04T23:10:55.658Z,3.43
2022-10-04T23:13:42.535Z,3.30
2022-10-04T23:16:29.455Z,3.17
2022-10-04T23:19:20.392Z,3.47
2022-10-04T23:22:13.503Z,3.20
2022-10-04T23:25:00.408Z,4.13
2022-10-04T23:27:47.603Z,3.13
2022-10-04T23:30:34.202Z,3.73
2022-10-04T23:33:24.909Z,3.37
2022-10-04T23:36:15.302Z,3.33
2022-10-04T23:39:03.013Z,4.00
2022-10-04T23:41:49.913Z,3.43
2022-10-04T23:44:38.315Z,3.50
2022-10-04T23:47:31.500Z,3.20
2022-10-04T23:50:25.110Z,3.60
2022-10-04T23:53:23.397Z,3.57
2022-10-04T23:56:18.556Z,3.60
2022-10-04T23:59:05.845Z,3.50
